createdAt,value
2023-03-26T00:01:40.718Z,15.27
2023-03-26T00:04:08.789Z,15.29
2023-03-26T00:06:40.086Z,15.34
2023-03-26T00:09:10.886Z,15.30
2023-03-26T00:11:39.607Z,15.29
2023-03-26T00:14:07.466Z,15.23
2023-03-26T00:16:36.497Z,15.24
2023-03-26T00:19:04.637Z,15.28
2023-03-26T00:21:33.098Z,15.22
2023-03-26T00:24:05.185Z,15.19
2023-03-26T00:26:35.268Z,15.21
2023-03-26T00:29:04.515Z,15.15
2023-03-26T00:31:33.797Z,15.11
2023-03-26T00:34:04.052Z,15.03
2023-03-26T00:36:36.274Z,15.01
2023-03-26T00:39:05.944Z,14.86
2023-03-26T00:41:37.484Z,14.82
2023-03-26T00:44:05.823Z,14.79
2023-03-26T00:46:34.088Z,14.75
2023-03-26T00:49:04.236Z,14.77
2023-03-26T00:51:34.282Z,14.82
2023-03-26T00:54:02.566Z,14.79
2023-03-26T00:56:31.157Z,14.77
2023-03-26T00:59:00.448Z,14.76
2023-03-26T01:01:30.663Z,14.73
2023-03-26T01:04:19.607Z,14.75
2023-03-26T01:06:48.052Z,14.69
2023-03-26T01:09:19.352Z,14.69
2023-03-26T01:11:50.231Z,14.71
2023-03-26T01:14:26.238Z,14.64
2023-03-26T01:17:02.224Z,14.63
2023-03-26T01:19:53.422Z,14.73
2023-03-26T01:22:26.237Z,14.67
2023-03-26T01:24:56.841Z,14.55
2023-03-26T01:27:39.668Z,14.52
2023-03-26T01:30:34.022Z,14.62
2023-03-26T01:33:14.398Z,14.59
2023-03-26T01:35:48.893Z,14.57
2023-03-26T01:38:28.501Z,14.49
2023-03-26T01:41:05.251Z,14.48
2023-03-26T01:44:11.875Z,14.50
2023-03-26T01:46:41.079Z,14.42
2023-03-26T01:49:13.849Z,14.32
2023-03-26T01:51:43.398Z,14.23
2023-03-26T01:54:17.290Z,14.25
2023-03-26T01:57:00.095Z,14.21
2023-03-26T01:59:37.428Z,14.21
2023-03-26T02:02:17.517Z,14.10
2023-03-26T02:05:22.276Z,14.10
2023-03-26T02:08:09.909Z,14.05
2023-03-26T02:10:44.851Z,13.94
2023-03-26T02:13:14.023Z,13.93
2023-03-26T02:15:54.538Z,13.95
2023-03-26T02:18:24.420Z,13.88
2023-03-26T02:20:56.095Z,13.86
2023-03-26T02:23:24.175Z,13.81
2023-03-26T02:25:53.256Z,13.82
2023-03-26T02:28:21.931Z,13.76
2023-03-26T02:30:50.730Z,13.73
2023-03-26T02:33:18.908Z,13.68
2023-03-26T02:35:47.177Z,13.66
2023-03-26T02:38:15.241Z,13.56
2023-03-26T02:40:43.952Z,13.58
2023-03-26T02:43:11.926Z,13.51
2023-03-26T02:45:41.066Z,13.50
2023-03-26T02:48:27.320Z,13.52
2023-03-26T02:51:03.965Z,13.50
2023-03-26T02:53:50.043Z,13.47
2023-03-26T02:56:41.336Z,13.25
2023-03-26T02:59:26.537Z,13.33
2023-03-26T03:02:29.619Z,13.24
2023-03-26T03:05:06.136Z,13.32
2023-03-26T03:07:38.177Z,13.33
2023-03-26T03:10:14.136Z,13.33
2023-03-26T03:13:08.377Z,13.28
2023-03-26T03:15:36.299Z,13.35
2023-03-26T03:18:04.667Z,13.34
2023-03-26T03:20:35.486Z,13.44
2023-03-26T03:23:03.736Z,13.42
2023-03-26T03:25:32.845Z,13.43
2023-03-26T03:28:01.997Z,13.49
2023-03-26T03:30:29.937Z,13.54
2023-03-26T03:33:21.651Z,13.54
2023-03-26T03:35:50.991Z,13.59
2023-03-26T03:38:20.021Z,13.61
2023-03-26T03:40:51.436Z,13.63
2023-03-26T03:43:20.163Z,13.68
2023-03-26T03:46:04.240Z,13.76
2023-03-26T03:48:39.410Z,13.81
2023-03-26T03:51:08.886Z,13.91
2023-03-26T03:53:57.743Z,13.91
2023-03-26T03:57:02.473Z,13.91
2023-03-26T03:59:31.049Z,14.00
2023-03-26T04:01:59.034Z,14.11
2023-03-26T04:04:34.653Z,14.11
2023-03-26T04:07:07.003Z,13.98
2023-03-26T04:09:53.980Z,14.08
2023-03-26T04:12:24.341Z,14.15
2023-03-26T04:15:02.409Z,14.18
2023-03-26T04:17:31.810Z,14.16
2023-03-26T04:20:13.547Z,14.29
2023-03-26T04:22:43.599Z,14.41
2023-03-26T04:25:15.785Z,14.56
2023-03-26T04:27:48.608Z,14.56
2023-03-26T04:30:23.598Z,14.54
2023-03-26T04:33:15.748Z,14.72
2023-03-26T04:35:45.831Z,14.71
2023-03-26T04:38:17.192Z,14.72
2023-03-26T04:40:48.820Z,14.66
2023-03-26T04:43:36.954Z,14.56
2023-03-26T04:46:27.034Z,14.58
2023-03-26T04:49:06.881Z,14.63
2023-03-26T04:51:42.270Z,14.66
2023-03-26T04:54:36.273Z,14.57
2023-03-26T04:57:34.379Z,14.69
2023-03-26T05:00:20.557Z,14.66
2023-03-26T05:02:58.142Z,14.77
2023-03-26T05:05:28.226Z,14.75
2023-03-26T05:07:59.391Z,14.69
2023-03-26T05:10:27.533Z,14.69
2023-03-26T05:13:01.708Z,14.86
2023-03-26T05:15:36.251Z,14.76
2023-03-26T05:18:10.986Z,14.89
2023-03-26T05:20:42.536Z,14.96
2023-03-26T05:23:11.559Z,15.03
2023-03-26T05:25:45.234Z,15.07
2023-03-26T05:28:19.572Z,15.11
2023-03-26T05:30:57.641Z,15.09
2023-03-26T05:33:29.154Z,15.12
2023-03-26T05:36:16.115Z,15.31
2023-03-26T05:39:07.002Z,15.36
2023-03-26T05:42:13.055Z,15.42
2023-03-26T05:44:56.416Z,15.37
2023-03-26T05:47:28.360Z,15.30
2023-03-26T05:49:57.440Z,15.39
2023-03-26T05:52:26.188Z,15.44
2023-03-26T05:55:13.712Z,15.45
2023-03-26T05:58:00.209Z,15.57
2023-03-26T06:00:48.984Z,15.63
2023-03-26T06:03:29.495Z,15.67
2023-03-26T06:05:58.060Z,15.75
2023-03-26T06:08:40.028Z,15.87
2023-03-26T06:11:08.698Z,15.97
2023-03-26T06:13:40.138Z,16.06
2023-03-26T06:16:10.189Z,15.99
2023-03-26T06:19:11.082Z,16.12
2023-03-26T06:22:02.220Z,16.17
2023-03-26T06:24:35.174Z,16.34
2023-03-26T06:27:22.072Z,16.37
2023-03-26T06:30:09.113Z,16.43
2023-03-26T06:33:09.875Z,16.47
2023-03-26T06:35:45.750Z,16.43
2023-03-26T06:38:16.040Z,16.54
2023-03-26T06:40:44.918Z,16.59
2023-03-26T06:43:36.618Z,16.67
2023-03-26T06:46:36.910Z,16.65
2023-03-26T06:49:23.358Z,16.83
2023-03-26T06:52:11.709Z,16.81
2023-03-26T06:54:50.442Z,16.85
2023-03-26T06:57:49.421Z,17.07
2023-03-26T07:00:54.097Z,17.15
2023-03-26T07:03:40.808Z,17.22
2023-03-26T07:06:27.772Z,17.28
2023-03-26T07:09:14.111Z,17.39
2023-03-26T07:12:00.733Z,17.33
2023-03-26T07:14:51.486Z,17.45
2023-03-26T07:17:38.755Z,17.48
2023-03-26T07:20:20.352Z,17.54
2023-03-26T07:22:49.694Z,17.62
2023-03-26T07:25:42.628Z,17.62
2023-03-26T07:28:17.476Z,17.68
2023-03-26T07:31:18.709Z,17.61
2023-03-26T07:34:14.591Z,17.66
2023-03-26T07:37:01.515Z,17.62
2023-03-26T07:39:57.926Z,17.63
2023-03-26T07:42:47.234Z,17.79
2023-03-26T07:45:45.294Z,17.87
2023-03-26T07:48:50.093Z,17.93
2023-03-26T07:51:41.586Z,17.99
2023-03-26T07:54:29.877Z,18.14
2023-03-26T07:57:35.601Z,18.16
2023-03-26T08:00:56.235Z,18.21
2023-03-26T08:03:40.333Z,18.33
2023-03-26T08:06:26.581Z,18.30
2023-03-26T08:09:06.357Z,18.42
2023-03-26T08:12:06.995Z,18.50
2023-03-26T08:15:03.639Z,18.53
2023-03-26T08:18:03.657Z,18.64
2023-03-26T08:20:49.388Z,18.67
2023-03-26T08:23:23.853Z,18.74
2023-03-26T08:27:33.427Z,18.85
2023-03-26T08:29:56.386Z,18.90
2023-03-26T08:35:56.384Z,18.62
2023-03-26T08:38:38.678Z,18.87
2023-03-26T08:41:34.359Z,18.86
2023-03-26T08:44:14.612Z,18.97
2023-03-26T08:46:49.111Z,18.93
2023-03-26T08:49:35.573Z,19.01
2023-03-26T08:52:35.189Z,19.00
2023-03-26T08:55:22.364Z,18.96
2023-03-26T08:58:09.290Z,18.88
2023-03-26T09:00:45.972Z,18.80
2023-03-26T09:03:41.672Z,18.80
2023-03-26T09:06:40.105Z,18.99
2023-03-26T09:09:37.884Z,19.08
2023-03-26T09:12:28.497Z,19.18
2023-03-26T09:15:34.155Z,19.30
2023-03-26T09:18:19.874Z,19.37
2023-03-26T09:21:12.645Z,19.41
2023-03-26T09:24:05.863Z,19.46
2023-03-26T09:26:37.898Z,19.55
2023-03-26T09:29:33.671Z,19.54
2023-03-26T09:32:17.121Z,19.73
2023-03-26T09:34:54.132Z,19.87
2023-03-26T09:38:01.292Z,19.92
2023-03-26T09:40:37.653Z,19.88
2023-03-26T09:43:30.107Z,20.01
2023-03-26T09:46:25.093Z,19.99
2023-03-26T09:49:07.712Z,19.92
2023-03-26T09:52:07.534Z,19.98
2023-03-26T09:54:44.610Z,20.05
2023-03-26T09:57:33.762Z,19.98
2023-03-26T10:00:10.712Z,19.89
2023-03-26T10:03:09.936Z,19.97
2023-03-26T10:06:16.549Z,19.99
2023-03-26T10:09:13.760Z,20.03
2023-03-26T10:11:58.217Z,20.10
2023-03-26T10:14:42.121Z,20.12
2023-03-26T10:17:29.159Z,20.17
2023-03-26T10:19:56.857Z,20.26
2023-03-26T10:23:04.797Z,20.24
2023-03-26T10:25:54.054Z,20.29
2023-03-26T10:28:39.521Z,20.33
2023-03-26T10:31:44.887Z,20.50
2023-03-26T10:34:28.532Z,20.58
2023-03-26T10:37:16.675Z,20.76
2023-03-26T10:40:08.771Z,20.80
2023-03-26T10:42:44.184Z,20.71
2023-03-26T10:45:28.757Z,20.76
2023-03-26T10:48:08.587Z,20.70
2023-03-26T10:51:07.973Z,20.75
2023-03-26T10:54:03.072Z,20.74
2023-03-26T10:56:58.532Z,20.87
2023-03-26T10:59:27.909Z,20.81
2023-03-26T11:02:17.585Z,20.84
2023-03-26T11:05:00.616Z,20.88
2023-03-26T11:07:50.988Z,20.93
2023-03-26T11:10:48.293Z,20.88
2023-03-26T11:13:36.913Z,20.94
2023-03-26T11:16:26.362Z,20.93
2023-03-26T11:19:40.056Z,20.98
2023-03-26T11:22:26.271Z,21.01
2023-03-26T11:25:21.993Z,20.84
2023-03-26T11:27:53.346Z,20.81
2023-03-26T11:30:54.185Z,20.71
2023-03-26T11:33:33.575Z,20.81
2023-03-26T11:36:09.046Z,20.77
2023-03-26T11:38:44.875Z,20.78
2023-03-26T11:41:24.693Z,20.78
2023-03-26T11:44:17.153Z,20.71
2023-03-26T11:46:48.218Z,20.81
2023-03-26T11:49:21.137Z,20.84
2023-03-26T11:51:49.579Z,20.80
2023-03-26T11:54:18.159Z,20.72
2023-03-26T11:57:04.905Z,20.63
2023-03-26T11:59:56.992Z,20.57
2023-03-26T12:02:36.070Z,20.54
2023-03-26T12:05:26.750Z,20.57
2023-03-26T12:08:00.626Z,20.60
2023-03-26T12:10:39.611Z,20.62
2023-03-26T12:13:28.496Z,20.72
2023-03-26T12:16:01.747Z,20.77
2023-03-26T12:18:30.373Z,20.70
2023-03-26T12:21:09.647Z,20.76
2023-03-26T12:23:58.669Z,20.81
2023-03-26T12:26:42.084Z,20.82
2023-03-26T12:29:21.047Z,20.83
2023-03-26T12:31:52.397Z,20.94
2023-03-26T12:34:23.677Z,20.94
2023-03-26T12:37:01.686Z,21.07
2023-03-26T12:40:07.882Z,21.10
2023-03-26T12:44:51.010Z,21.18
2023-03-26T12:45:24.150Z,21.21
2023-03-26T12:48:00.712Z,21.25
2023-03-26T12:51:16.597Z,21.22
2023-03-26T12:54:16.421Z,21.24
2023-03-26T12:57:19.008Z,21.28
2023-03-26T12:59:52.999Z,21.36
2023-03-26T13:02:44.895Z,21.36
2023-03-26T13:05:34.486Z,21.34
2023-03-26T13:08:23.714Z,21.34
2023-03-26T13:11:17.528Z,21.31
2023-03-26T13:14:09.408Z,21.24
2023-03-26T13:16:51.956Z,21.23
2023-03-26T13:19:35.869Z,21.23
2023-03-26T13:22:15.607Z,21.27
2023-03-26T13:24:53.013Z,21.26
2023-03-26T13:27:42.486Z,21.33
2023-03-26T13:30:19.635Z,21.34
2023-03-26T13:33:21.219Z,21.43
2023-03-26T13:36:24.497Z,21.44
2023-03-26T13:39:20.627Z,21.45
2023-03-26T13:42:15.338Z,21.49
2023-03-26T13:45:05.826Z,21.34
2023-03-26T13:47:39.575Z,21.37
2023-03-26T13:50:20.927Z,21.31
2023-03-26T13:53:03.513Z,21.29
2023-03-26T13:55:47.953Z,21.22
2023-03-26T13:58:34.404Z,21.17
2023-03-26T14:01:08.401Z,21.06
2023-03-26T14:03:54.902Z,21.02
2023-03-26T14:06:46.971Z,20.92
2023-03-26T14:09:30.830Z,21.02
2023-03-26T14:12:03.160Z,20.98
2023-03-26T14:14:48.485Z,20.92
2023-03-26T14:17:16.868Z,20.90
2023-03-26T14:20:06.869Z,20.84
2023-03-26T14:22:56.177Z,20.84
2023-03-26T14:25:42.868Z,20.72
2023-03-26T14:28:16.955Z,20.66
2023-03-26T14:30:48.742Z,20.63
2023-03-26T14:33:28.313Z,20.52
2023-03-26T14:36:06.590Z,20.54
2023-03-26T14:38:59.587Z,20.44
2023-03-26T14:41:59.491Z,20.33
2023-03-26T14:45:07.243Z,20.11
2023-03-26T14:48:06.664Z,20.03
2023-03-26T14:50:54.778Z,20.00
2023-03-26T14:53:33.818Z,19.93
2023-03-26T14:56:03.456Z,19.96
2023-03-26T14:59:08.575Z,19.96
2023-03-26T15:02:04.997Z,19.84
2023-03-26T15:04:54.557Z,19.82
2023-03-26T15:07:59.467Z,19.74
2023-03-26T15:10:52.978Z,19.62
2023-03-26T15:13:56.577Z,19.48
2023-03-26T15:16:53.720Z,19.52
2023-03-26T15:20:17.062Z,19.38
2023-03-26T15:23:10.383Z,19.21
2023-03-26T15:26:05.189Z,19.08
2023-03-26T15:29:01.728Z,19.10
2023-03-26T15:32:09.921Z,18.88
2023-03-26T15:35:21.416Z,18.81
2023-03-26T15:38:00.114Z,18.85
2023-03-26T15:40:59.725Z,18.58
2023-03-26T15:44:24.207Z,18.50
2023-03-26T15:47:41.165Z,18.52
2023-03-26T15:55:06.152Z,18.28
2023-03-26T15:58:03.784Z,18.38
2023-03-26T16:01:19.294Z,18.18
2023-03-26T16:04:50.322Z,18.30
2023-03-26T16:08:13.045Z,18.14
2023-03-26T16:11:20.173Z,18.25
2023-03-26T16:18:31.222Z,17.93
2023-03-26T16:21:39.877Z,18.10
2023-03-26T16:24:45.673Z,18.00
2023-03-26T16:27:38.449Z,17.80
2023-03-26T16:30:33.542Z,17.81
2023-03-26T16:33:33.335Z,17.75
2023-03-26T16:36:36.872Z,17.82
2023-03-26T16:39:48.259Z,17.76
2023-03-26T16:42:29.464Z,17.68
2023-03-26T16:45:15.138Z,17.79
2023-03-26T16:48:01.260Z,17.79
2023-03-26T16:50:50.787Z,17.79
2023-03-26T16:53:46.824Z,17.67
2023-03-26T16:56:21.954Z,17.76
2023-03-26T16:59:03.383Z,17.78
2023-03-26T17:01:48.529Z,17.77
2023-03-26T17:04:25.173Z,17.82
2023-03-26T17:06:56.912Z,17.85
2023-03-26T17:09:31.854Z,17.82
2023-03-26T17:12:08.722Z,17.74
2023-03-26T17:15:06.271Z,17.75
2023-03-26T17:18:05.542Z,17.83
2023-03-26T17:20:52.226Z,17.87
2023-03-26T17:23:29.349Z,17.91
2023-03-26T17:26:27.205Z,17.97
2023-03-26T17:29:17.939Z,17.96
2023-03-26T17:32:01.520Z,17.97
2023-03-26T17:34:38.226Z,17.93
2023-03-26T17:37:12.017Z,17.85
2023-03-26T17:39:40.108Z,17.85
2023-03-26T17:42:26.631Z,17.82
2023-03-26T17:44:59.448Z,17.78
2023-03-26T17:47:35.025Z,17.64
2023-03-26T17:50:16.480Z,17.54
2023-03-26T17:52:51.789Z,17.52
2023-03-26T17:55:23.261Z,17.60
2023-03-26T17:57:56.967Z,17.55
2023-03-26T18:00:31.469Z,17.44
2023-03-26T18:03:07.391Z,17.46
2023-03-26T18:05:39.683Z,17.39
2023-03-26T18:08:30.324Z,17.19
2023-03-26T18:11:33.327Z,17.19
2023-03-26T18:14:16.559Z,17.30
2023-03-26T18:16:48.443Z,17.17
2023-03-26T18:19:23.190Z,16.98
2023-03-26T18:21:54.012Z,17.08
2023-03-26T18:24:40.252Z,17.07
2023-03-26T18:27:21.046Z,17.05
2023-03-26T18:30:02.831Z,17.00
2023-03-26T18:32:34.024Z,16.93
2023-03-26T18:35:17.257Z,16.90
2023-03-26T18:37:46.384Z,17.07
2023-03-26T18:40:20.348Z,16.88
2023-03-26T18:42:57.947Z,16.93
2023-03-26T18:45:30.374Z,17.01
2023-03-26T18:48:01.745Z,16.99
2023-03-26T18:50:40.218Z,16.88
2023-03-26T18:53:30.704Z,16.56
2023-03-26T18:55:59.264Z,16.67
2023-03-26T18:58:34.662Z,16.75
2023-03-26T19:01:19.943Z,16.80
2023-03-26T19:03:49.238Z,16.43
2023-03-26T19:06:17.998Z,16.66
2023-03-26T19:08:47.149Z,16.66
2023-03-26T19:11:17.937Z,16.74
2023-03-26T19:13:58.878Z,16.75
2023-03-26T19:16:33.978Z,16.80
2023-03-26T19:19:05.526Z,16.78
2023-03-26T19:21:36.452Z,16.76
2023-03-26T19:24:05.927Z,16.73
2023-03-26T19:26:34.626Z,16.79
2023-03-26T19:29:04.222Z,16.81
2023-03-26T19:31:35.588Z,16.88
2023-03-26T19:34:14.506Z,16.92
2023-03-26T19:37:23.074Z,16.94
2023-03-26T19:39:54.040Z,16.97
2023-03-26T19:42:43.918Z,16.92
2023-03-26T19:45:23.365Z,16.88
2023-03-26T19:48:03.521Z,16.90
2023-03-26T19:50:42.473Z,16.92
2023-03-26T19:53:17.963Z,16.92
2023-03-26T19:55:57.919Z,16.89
2023-03-26T19:58:27.827Z,16.93
2023-03-26T20:00:56.706Z,16.91
2023-03-26T20:03:29.800Z,16.84
2023-03-26T20:05:58.032Z,16.82
2023-03-26T20:08:29.488Z,16.88
2023-03-26T20:10:58.619Z,16.92
2023-03-26T20:13:27.504Z,16.94
2023-03-26T20:16:06.060Z,17.01
2023-03-26T20:18:35.323Z,16.95
2023-03-26T20:21:10.701Z,16.92
2023-03-26T20:23:40.536Z,16.88
2023-03-26T20:26:16.951Z,16.84
2023-03-26T20:28:48.363Z,16.81
2023-03-26T20:31:23.870Z,16.70
2023-03-26T20:33:54.701Z,16.53
2023-03-26T20:36:33.687Z,16.50
2023-03-26T20:48:37.845Z,16.18
2023-03-26T20:51:43.172Z,16.35
2023-03-26T21:00:04.928Z,16.32
2023-03-26T21:04:01.596Z,16.34
2023-03-26T21:06:32.713Z,16.33
2023-03-26T21:09:03.295Z,16.38
2023-03-26T21:11:56.067Z,16.36
2023-03-26T21:14:41.793Z,16.35
2023-03-26T21:17:20.409Z,16.27
2023-03-26T21:19:49.777Z,16.28
2023-03-26T21:22:32.967Z,16.26
2023-03-26T21:25:00.964Z,16.22
2023-03-26T21:28:00.635Z,16.30
2023-03-26T21:30:30.511Z,16.29
2023-03-26T21:32:59.972Z,16.25
2023-03-26T21:35:28.512Z,16.17
2023-03-26T21:37:58.009Z,16.16
2023-03-26T21:40:26.365Z,16.02
2023-03-26T21:42:55.130Z,16.15
2023-03-26T21:45:23.328Z,16.20
2023-03-26T21:47:51.919Z,16.20
2023-03-26T21:50:23.163Z,16.23
2023-03-26T21:52:52.258Z,16.15
2023-03-26T21:55:24.875Z,16.08
2023-03-26T21:58:02.750Z,16.10
2023-03-26T22:00:43.763Z,15.99
2023-03-26T22:03:26.113Z,16.00
2023-03-26T22:06:07.581Z,15.90
2023-03-26T22:08:41.088Z,15.83
2023-03-26T22:11:11.589Z,15.81
2023-03-26T22:13:40.020Z,15.86
2023-03-26T22:16:10.916Z,15.75
2023-03-26T22:18:39.468Z,15.74
2023-03-26T22:21:07.920Z,15.72
2023-03-26T22:23:37.371Z,15.61
2023-03-26T22:26:06.218Z,15.66
2023-03-26T22:28:34.544Z,15.57
2023-03-26T22:31:11.100Z,15.55
2023-03-26T22:33:40.428Z,15.54
2023-03-26T22:36:22.701Z,15.45
2023-03-26T22:38:54.263Z,15.34
2023-03-26T22:41:23.149Z,15.32
2023-03-26T22:43:54.893Z,15.31
2023-03-26T22:46:23.922Z,15.30
2023-03-26T22:48:52.730Z,15.31
2023-03-26T22:51:20.847Z,15.31
2023-03-26T22:53:49.275Z,15.24
2023-03-26T22:56:17.445Z,15.20
2023-03-26T22:58:47.857Z,15.23
2023-03-26T23:01:19.464Z,15.21
2023-03-26T23:03:48.104Z,15.19
2023-03-26T23:06:16.403Z,15.10
2023-03-26T23:08:44.601Z,15.08
2023-03-26T23:11:15.052Z,15.07
2023-03-26T23:13:44.776Z,14.94
2023-03-26T23:16:13.556Z,14.96
2023-03-26T23:18:42.088Z,14.87
2023-03-26T23:21:15.655Z,14.85
2023-03-26T23:23:44.080Z,14.80
2023-03-26T23:26:12.279Z,14.78
2023-03-26T23:28:41.267Z,14.77
2023-03-26T23:31:13.586Z,14.73
2023-03-26T23:33:46.412Z,14.68
2023-03-26T23:36:18.726Z,14.77
2023-03-26T23:38:48.797Z,14.67
2023-03-26T23:41:21.812Z,14.75
2023-03-26T23:43:53.413Z,14.81
2023-03-26T23:46:25.587Z,14.84
2023-03-26T23:48:55.197Z,14.77
2023-03-26T23:51:24.302Z,14.70
2023-03-26T23:53:53.853Z,14.76
2023-03-26T23:56:22.082Z,14.74
2023-03-26T23:58:50.278Z,14.64
